Time;durP1;ratioP1;P1;durP2;ratioP2;P2;SDS_P1;SDS_P2;PMS_P1;PMS_P2;Temp;Humidity;BMP_temperature;BMP_pressure;BME280_temperature;BME280_humidity;BME280_pressure;Samples;Min_cycle;Max_cycle;Signal;HPM_P1;HPM_P2
2024/02/08 00:00:00;;;;;;;6.85;5.18;;;;;;;9.81;46.25;94467.06;5047873;28;20420;-82
2024/02/08 00:02:25;;;;;;;7.43;4.55;;;;;;;9.86;46.21;94460.22;5046895;28;20487;-80
2024/02/08 00:04:55;;;;;;;8.63;5.38;;;;;;;9.94;45.98;94467.03;5048004;28;20103;-82
2024/02/08 00:07:20;;;;;;;7.68;4.90;;;;;;;9.91;45.69;94456.16;5030031;28;20533;-81
2024/02/08 00:09:46;;;;;;;8.15;4.40;;;;;;;9.87;45.92;94456.28;5046147;28;20104;-82
2024/02/08 00:12:11;;;;;;;8.00;4.47;;;;;;;9.79;46.08;94450.25;5046421;28;20028;-81
2024/02/08 00:14:38;;;;;;;8.27;4.65;;;;;;;9.77;45.88;94449.19;5046754;28;20079;-82
2024/02/08 00:17:04;;;;;;;10.50;4.72;;;;;;;9.73;46.09;94449.28;5046403;28;20025;-81
2024/02/08 00:19:29;;;;;;;7.28;4.22;;;;;;;9.69;46.21;94458.84;5046592;28;20480;-81
2024/02/08 00:21:56;;;;;;;7.35;4.85;;;;;;;9.64;46.39;94462.16;5047920;28;20025;-82
2024/02/08 00:24:22;;;;;;;7.97;5.28;;;;;;;9.56;46.59;94458.88;5048004;28;20536;-80
2024/02/08 00:26:47;;;;;;;7.45;5.03;;;;;;;9.59;46.37;94449.75;5047612;28;20174;-83
2024/02/08 00:29:13;;;;;;;9.20;4.95;;;;;;;9.64;46.36;94449.22;5046182;28;20049;-80
2024/02/08 00:31:38;;;;;;;9.73;4.68;;;;;;;9.61;46.21;94455.56;5046414;28;20116;-81
2024/02/08 00:34:04;;;;;;;7.43;4.63;;;;;;;9.57;46.23;94447.44;5047455;28;20017;-81
2024/02/08 00:36:29;;;;;;;10.40;4.82;;;;;;;9.67;46.17;94453.03;5029624;28;20028;-81
2024/02/08 00:38:55;;;;;;;10.77;4.78;;;;;;;9.59;46.04;94449.75;5045861;28;20036;-81
2024/02/08 00:41:23;;;;;;;8.07;4.85;;;;;;;9.57;46.16;94449.41;5029656;28;20415;-80
2024/02/08 00:43:49;;;;;;;8.40;5.13;;;;;;;9.46;46.51;94451.75;5045764;28;20021;-81
2024/02/08 00:46:15;;;;;;;8.88;4.88;;;;;;;9.48;46.30;94463.06;5029556;28;20028;-81
2024/02/08 00:48:43;;;;;;;10.23;5.20;;;;;;;9.44;46.13;94454.16;5047033;28;20075;-81
2024/02/08 00:51:09;;;;;;;10.88;5.50;;;;;;;9.41;46.17;94458.56;5046842;28;20052;-82
2024/02/08 00:53:35;;;;;;;9.15;5.35;;;;;;;9.34;46.21;94450.56;5045948;28;20075;-82
2024/02/08 00:56:00;;;;;;;8.18;5.05;;;;;;;9.34;46.31;94452.53;5046759;28;20029;-80
2024/02/08 00:58:26;;;;;;;8.32;4.40;;;;;;;9.35;46.26;94459.53;5047135;28;20029;-81
2024/02/08 01:00:53;;;;;;;9.57;4.90;;;;;;;9.28;46.13;94457.78;5028992;28;20090;-81
2024/02/08 01:03:19;;;;;;;7.35;4.22;;;;;;;9.36;46.27;94447.38;5029118;28;20021;-80
2024/02/08 01:05:50;;;;;;;7.57;4.25;;;;;;;9.29;46.29;94449.16;5046529;28;20496;-80
2024/02/08 01:08:15;;;;;;;7.60;4.18;;;;;;;9.20;46.36;94443.56;5045360;28;20027;-81
2024/02/08 01:10:41;;;;;;;7.95;3.97;;;;;;;9.27;46.12;94453.53;5045299;28;20120;-82
2024/02/08 01:13:06;;;;;;;6.18;4.10;;;;;;;9.29;45.95;94449.16;5045146;28;20025;-81
2024/02/08 01:15:31;;;;;;;8.95;4.03;;;;;;;9.22;46.24;94440.34;5046843;28;20107;-82
2024/02/08 01:17:58;;;;;;;5.70;3.85;;;;;;;9.33;46.27;94443.53;5045105;28;20029;-82
2024/02/08 01:20:27;;;;;;;5.68;3.63;;;;;;;9.32;46.24;94448.25;5045503;28;20029;-82
2024/02/08 01:22:54;;;;;;;8.27;4.10;;;;;;;9.24;46.12;94441.47;5046476;28;20039;-80
2024/02/08 01:25:19;;;;;;;6.30;4.28;;;;;;;9.23;46.13;94445.44;5045325;28;20021;-81
2024/02/08 01:27:45;;;;;;;6.72;4.05;;;;;;;9.18;46.31;94443.22;5045355;28;20017;-81
2024/02/08 01:30:13;;;;;;;6.95;4.07;;;;;;;9.17;46.19;94438.16;5044853;28;20502;-80
2024/02/08 01:32:40;;;;;;;5.60;3.50;;;;;;;9.17;46.36;94449.13;5045014;28;20028;-82
2024/02/08 01:35:06;;;;;;;6.85;3.72;;;;;;;9.12;46.57;94452.41;5046055;28;20055;-82
2024/02/08 01:37:38;;;;;;;7.68;4.10;;;;;;;9.12;46.60;94444.19;5046594;28;20147;-81
2024/02/08 01:40:06;;;;;;;7.65;4.20;;;;;;;9.04;46.62;94447.16;5028757;28;20475;-80
2024/02/08 01:42:32;;;;;;;6.43;4.35;;;;;;;9.08;46.59;94435.34;5046602;28;20103;-81
2024/02/08 01:45:30;;;;;;;6.75;4.10;;;;;;;9.20;46.11;94440.03;5044319;28;20063;-81
2024/02/08 01:48:03;;;;;;;7.75;4.57;;;;;;;9.20;46.09;94435.31;5046113;28;20024;-82
2024/02/08 01:50:35;;;;;;;;;;;;;;;9.14;46.42;94426.13;5045324;28;20048;-82
2024/02/08 01:53:02;;;;;;;6.03;4.35;;;;;;;9.03;46.45;94426.44;5045880;28;19913;-82
2024/02/08 01:55:33;;;;;;;7.07;4.22;;;;;;;8.97;46.74;94425.47;5044888;28;20503;-83
2024/02/08 01:58:09;;;;;;;6.72;4.15;;;;;;;8.96;46.82;94420.41;5044594;28;20056;-81
2024/02/08 02:00:38;;;;;;;7.57;4.45;;;;;;;8.94;46.82;94423.56;5045978;28;20029;-81
2024/02/08 02:03:11;;;;;;;10.32;4.20;;;;;;;8.93;46.85;94426.75;5044354;28;20031;-81
2024/02/08 02:05:39;;;;;;;;;;;;;;;8.94;46.89;94425.56;5044918;28;20040;-81
2024/02/08 02:08:05;;;;;;;8.95;4.90;;;;;;;8.81;46.93;94411.84;5027526;28;19917;-80
2024/02/08 02:10:32;;;;;;;7.47;4.55;;;;;;;8.81;47.05;94417.34;5043961;28;20587;-81
2024/02/08 02:13:01;;;;;;;7.07;4.18;;;;;;;8.80;47.00;94417.78;5045957;28;20399;-81
2024/02/08 02:15:31;;;;;;;9.50;5.00;;;;;;;8.66;47.11;94399.78;5027453;28;20031;-81
2024/02/08 02:18:00;;;;;;;6.85;4.20;;;;;;;8.75;47.23;94422.59;5044295;28;20025;-80
2024/02/08 02:20:29;;;;;;;8.82;4.55;;;;;;;8.75;47.16;94419.09;5044009;28;20028;-81
2024/02/08 02:23:03;;;;;;;8.95;4.75;;;;;;;8.69;47.54;94418.09;5044141;28;20025;-81
2024/02/08 02:25:28;;;;;;;;;;;;;;;8.65;47.71;94423.66;5028386;28;20415;-81
2024/02/08 02:27:55;;;;;;;7.95;5.05;;;;;;;8.56;47.84;94425.53;5027162;28;19924;-82
2024/02/08 02:30:23;;;;;;;8.43;4.85;;;;;;;8.53;47.83;94421.69;5043943;28;20055;-80
2024/02/08 02:32:50;;;;;;;8.43;5.00;;;;;;;8.55;47.66;94424.00;5044088;28;20096;-80
2024/02/08 02:35:17;;;;;;;8.98;4.95;;;;;;;8.52;48.05;94420.16;5045412;28;20064;-82
2024/02/08 02:37:45;;;;;;;9.57;4.70;;;;;;;8.44;47.87;94421.56;5044080;28;20021;-80
2024/02/08 02:40:22;;;;;;;6.18;4.35;;;;;;;8.37;47.86;94427.22;5026682;28;20082;-80
2024/02/08 02:42:50;;;;;;;10.55;4.35;;;;;;;8.42;47.61;94432.19;5044248;28;20025;-80
2024/02/08 02:45:21;;;;;;;8.63;5.00;;;;;;;8.34;48.12;94428.09;5043491;28;20594;-80
2024/02/08 02:47:48;;;;;;;12.07;5.07;;;;;;;8.22;48.34;94424.88;5028127;28;20026;-80
2024/02/08 02:50:16;;;;;;;11.35;5.38;;;;;;;8.11;48.31;94404.47;5044322;28;20131;-79
2024/02/08 02:52:43;;;;;;;8.68;4.50;;;;;;;8.14;48.30;94411.81;5046313;28;20025;-80
2024/02/08 02:55:09;;;;;;;9.00;5.00;;;;;;;8.12;48.42;94414.97;5044105;28;20052;-81
2024/02/08 02:57:36;;;;;;;7.13;4.53;;;;;;;8.13;48.61;94415.75;5043713;28;20511;-82
2024/02/08 03:00:03;;;;;;;10.55;4.72;;;;;;;8.11;48.56;94423.63;5044235;28;20401;-81
2024/02/08 03:02:29;;;;;;;11.98;5.05;;;;;;;8.09;48.67;94420.56;5043080;28;20045;-82
2024/02/08 03:04:54;;;;;;;8.02;5.15;;;;;;;8.06;48.89;94421.44;5027496;28;20111;-80
2024/02/08 03:07:20;;;;;;;7.25;4.57;;;;;;;8.05;48.90;94426.13;5044982;28;20032;-80
2024/02/08 03:09:46;;;;;;;10.55;5.25;;;;;;;7.93;49.18;94410.44;5044894;28;20029;-81
2024/02/08 03:12:12;;;;;;;7.53;4.70;;;;;;;7.94;49.10;94414.69;5027090;28;20036;-80
2024/02/08 03:14:56;;;;;;;6.35;4.53;;;;;;;7.86;49.40;94422.34;5045013;28;20350;-81
2024/02/08 03:17:22;;;;;;;8.20;4.88;;;;;;;7.81;49.62;94422.88;5045270;28;20052;-80
2024/02/08 03:19:48;;;;;;;9.13;5.35;;;;;;;7.76;50.03;94420.66;5046327;28;20261;-80
2024/02/08 03:22:13;;;;;;;7.93;4.90;;;;;;;7.71;49.89;94421.16;5047372;28;20278;-80
2024/02/08 03:24:38;;;;;;;11.02;6.00;;;;;;;7.65;50.04;94418.19;5048966;28;20029;-80
2024/02/08 03:27:05;;;;;;;8.27;5.40;;;;;;;7.53;50.04;94396.25;5047461;28;20029;-80
2024/02/08 03:29:34;;;;;;;8.88;5.47;;;;;;;7.68;49.87;94409.13;5048801;28;20086;-80
2024/02/08 03:31:59;;;;;;;10.10;5.18;;;;;;;7.65;49.84;94409.22;5048643;28;20079;-80
2024/02/08 03:34:29;;;;;;;10.38;5.68;;;;;;;7.63;49.66;94393.25;5048661;28;20032;-80
2024/02/08 03:36:56;;;;;;;8.80;4.57;;;;;;;7.64;49.74;94402.97;5047366;28;20040;-83
2024/02/08 03:39:27;;;;;;;8.45;4.72;;;;;;;7.67;49.80;94407.56;5047184;28;20056;-81
2024/02/08 03:41:56;;;;;;;12.48;6.53;;;;;;;7.70;49.72;94397.75;5047425;28;20100;-81
2024/02/08 03:44:21;;;;;;;12.40;6.18;;;;;;;7.68;49.73;94395.47;5048018;28;20107;-81
2024/02/08 03:46:49;;;;;;;12.02;6.03;;;;;;;7.60;49.75;94404.25;5030566;28;20107;-81
2024/02/08 03:49:14;;;;;;;8.88;5.63;;;;;;;7.56;49.75;94396.13;5047829;28;20650;-81
2024/02/08 03:51:40;;;;;;;14.82;6.47;;;;;;;7.47;50.02;94392.50;5048666;28;20104;-80
2024/02/08 03:54:08;;;;;;;10.55;5.97;;;;;;;7.35;50.57;94408.41;5046584;28;20031;-81
2024/02/08 03:56:36;;;;;;;10.45;5.70;;;;;;;7.33;50.53;94405.31;5048427;28;20032;-81
2024/02/08 03:59:11;;;;;;;12.63;6.28;;;;;;;7.43;50.38;94401.53;5046855;28;20028;-80
2024/02/08 04:01:37;;;;;;;13.65;6.07;;;;;;;7.39;50.56;94391.88;5048263;28;20039;-80
2024/02/08 04:04:12;;;;;;;9.95;5.45;;;;;;;7.33;50.48;94399.06;5046951;28;20025;-81
2024/02/08 04:07:00;;;;;;;13.80;6.78;;;;;;;7.34;50.54;94401.41;5046639;28;20575;-80
2024/02/08 04:09:36;;;;;;;9.07;5.60;;;;;;;7.29;50.51;94406.63;5046714;28;20155;-80
2024/02/08 04:55:54;;;;;;;13.13;7.10;;;;;;;7.01;52.16;94413.53;5046416;28;20571;-81
2024/02/08 04:58:20;;;;;;;11.02;7.00;;;;;;;6.94;52.36;94419.94;5045347;28;20116;-81
2024/02/08 05:00:46;;;;;;;11.70;7.85;;;;;;;6.92;52.37;94419.56;5047233;28;20025;-80
2024/02/08 05:03:11;;;;;;;15.20;8.25;;;;;;;6.87;52.29;94412.66;5028684;28;20660;-79
2024/02/08 05:05:43;;;;;;;16.75;9.02;;;;;;;6.83;52.56;94413.94;5046950;28;20024;-81
2024/02/08 05:08:10;;;;;;;21.17;11.38;;;;;;;6.77;52.62;94410.19;5046806;28;20021;-80
2024/02/08 05:10:36;;;;;;;22.77;12.70;;;;;;;6.67;52.72;94414.69;5045286;28;20483;-82
2024/02/08 05:13:04;;;;;;;19.40;11.30;;;;;;;6.72;52.74;94421.63;5045785;28;20033;-82
2024/02/08 05:15:30;;;;;;;18.92;11.23;;;;;;;6.67;53.01;94424.84;5046557;28;20052;-83
2024/02/08 05:17:56;;;;;;;20.77;12.45;;;;;;;6.65;52.96;94425.25;5029057;28;20525;-82
2024/02/08 05:20:21;;;;;;;25.83;15.25;;;;;;;6.62;52.90;94424.13;5028201;28;20025;-83
2024/02/08 05:22:46;;;;;;;25.05;15.25;;;;;;;6.50;53.40;94434.94;5046974;28;20105;-82
2024/02/08 05:25:12;;;;;;;27.05;17.38;;;;;;;6.44;53.46;94425.72;5046703;28;20180;-82
2024/02/08 05:27:37;;;;;;;27.58;17.33;;;;;;;6.41;53.40;94446.44;5028463;28;20439;-80
2024/02/08 05:30:04;;;;;;;30.52;18.13;;;;;;;6.37;53.66;94445.75;5028545;28;20195;-80
2024/02/08 05:32:29;;;;;;;34.35;20.25;;;;;;;6.30;53.95;94445.88;5044792;28;20033;-81
2024/02/08 05:34:55;;;;;;;35.92;19.27;;;;;;;6.32;54.21;94443.53;5045384;28;20044;-81
2024/02/08 05:37:25;;;;;;;34.22;19.98;;;;;;;6.27;54.34;94442.03;5045785;28;20033;-81
2024/02/08 05:39:51;;;;;;;29.77;19.60;;;;;;;6.30;54.40;94435.72;5045245;28;20021;-81
2024/02/08 05:42:17;;;;;;;37.97;22.48;;;;;;;6.21;55.00;94445.69;5026985;28;20025;-82
2024/02/08 05:44:45;;;;;;;35.78;23.13;;;;;;;6.18;55.13;94443.78;5044615;28;20063;-81
2024/02/08 05:47:15;;;;;;;31.48;20.40;;;;;;;6.21;55.27;94446.47;5045387;28;20407;-81
2024/02/08 05:49:48;;;;;;;29.15;16.95;;;;;;;6.18;55.68;94447.28;5028528;28;20165;-83
2024/02/08 05:52:15;;;;;;;23.98;14.57;;;;;;;6.13;55.54;94455.97;5029592;28;20036;-82
2024/02/08 05:54:45;;;;;;;22.08;13.25;;;;;;;6.12;55.60;94451.69;5027607;28;20495;-83
2024/02/08 05:57:14;;;;;;;21.38;14.05;;;;;;;6.07;55.92;94450.22;5045290;28;20025;-84
2024/02/08 05:59:40;;;;;;;18.45;13.77;;;;;;;6.11;55.66;94461.84;5044572;28;20063;-84
2024/02/08 06:02:14;;;;;;;21.30;14.32;;;;;;;6.13;55.68;94458.69;5028134;28;20033;-83
2024/02/08 06:04:50;;;;;;;20.95;14.52;;;;;;;6.14;55.44;94471.16;5045012;28;20056;-83
2024/02/08 06:07:17;;;;;;;29.15;14.00;;;;;;;6.10;55.43;94463.03;5044452;28;20531;-83
2024/02/08 06:12:23;;;;;;;18.45;11.18;;;;;;;6.10;55.51;94465.75;5044967;28;20569;-83
2024/02/08 06:14:58;;;;;;;18.45;11.05;;;;;;;6.01;56.05;94464.78;5046676;28;20040;-82
2024/02/08 06:17:33;;;;;;;15.13;10.98;;;;;;;5.96;56.12;94463.28;5044513;28;20158;-84
2024/02/08 06:20:00;;;;;;;18.30;11.95;;;;;;;5.99;55.97;94469.88;5044434;28;20122;-85
2024/02/08 06:22:28;;;;;;;16.92;10.70;;;;;;;6.05;56.19;94474.44;5044227;28;20267;-85
2024/02/08 06:25:08;;;;;;;21.48;11.45;;;;;;;5.95;56.57;94472.66;5044280;28;20032;-83
2024/02/08 06:27:37;;;;;;;15.35;9.48;;;;;;;5.87;56.77;94476.69;5044341;28;20025;-84
2024/02/08 06:30:09;;;;;;;15.82;10.18;;;;;;;5.95;56.58;94472.66;5044148;28;20032;-84
2024/02/08 06:32:44;;;;;;;18.88;11.35;;;;;;;5.99;56.46;94480.81;5044020;28;20035;-83
2024/02/08 06:35:13;;;;;;;20.58;12.48;;;;;;;6.07;56.14;94479.47;5044425;28;20033;-84
2024/02/08 06:37:48;;;;;;;21.45;12.52;;;;;;;6.16;55.97;94492.56;5043463;28;20033;-84
2024/02/08 06:40:24;;;;;;;21.88;12.60;;;;;;;6.24;55.64;94493.97;5029043;28;20025;-85
2024/02/08 06:45:25;;;;;;;19.15;11.65;;;;;;;6.32;55.47;94492.66;5043795;28;20624;-83
2024/02/08 07:39:46;;;;;;;;;;;;;;;8.08;51.56;94476.50;5052572;28;20525;-83
2024/02/08 07:42:32;;;;;;;43.80;26.25;;;;;;;8.14;51.42;94466.56;5034741;28;20003;-86
2024/02/08 07:45:04;;;;;;;51.42;27.98;;;;;;;8.30;51.06;94463.78;5052824;28;20029;-82
2024/02/08 07:47:33;;;;;;;49.63;28.25;;;;;;;8.46;50.59;94468.47;5050749;28;20520;-88
2024/02/08 07:50:09;;;;;;;46.03;29.40;;;;;;;8.60;50.48;94470.81;5051985;28;20590;-82
2024/02/08 07:52:45;;;;;;;44.50;25.80;;;;;;;8.75;49.91;94476.63;5050777;28;20045;-81
2024/02/08 07:55:14;;;;;;;39.88;23.85;;;;;;;8.97;49.32;94465.81;5050566;28;20021;-83
2024/02/08 07:57:57;;;;;;;33.50;19.08;;;;;;;9.15;48.66;94471.53;5050319;28;20033;-87
2024/02/08 08:00:41;;;;;;;30.65;18.15;;;;;;;9.39;47.73;94463.72;5050832;28;20421;-81
2024/02/08 08:03:08;;;;;;;33.05;19.25;;;;;;;9.63;47.04;94472.34;5036555;28;20447;-85
2024/02/08 08:05:44;;;;;;;32.47;17.40;;;;;;;9.94;46.17;94466.25;5030705;28;20036;-82
2024/02/08 08:08:28;;;;;;;27.92;16.83;;;;;;;10.24;45.64;94473.88;5030765;28;20025;-82
2024/02/08 08:11:02;;;;;;;;;;;;;;;10.70;44.60;94474.19;5032283;28;20048;-82
2024/02/08 08:13:50;;;;;;;29.52;16.63;;;;;;;11.11;43.62;94469.53;5047683;28;19913;-81
2024/02/08 08:18:57;;;;;;;31.25;17.60;;;;;;;12.16;41.55;94457.47;5049078;28;20044;-86
2024/02/08 08:21:26;;;;;;;31.48;18.35;;;;;;;12.92;39.84;94465.97;5046913;28;20025;-88
2024/02/08 08:24:02;;;;;;;26.45;17.50;;;;;;;13.80;38.21;94474.09;5048329;28;20021;-88
2024/02/08 08:26:39;;;;;;;26.85;15.88;;;;;;;15.22;35.13;94484.66;5047735;28;20082;-83
2024/02/08 08:29:13;;;;;;;21.63;14.15;;;;;;;16.68;32.29;94476.38;5030808;28;20031;-78
2024/02/08 08:31:54;;;;;;;26.33;15.88;;;;;;;18.11;30.18;94473.81;5046432;28;20029;-78
2024/02/08 08:37:26;;;;;;;20.05;13.93;;;;;;;20.44;26.40;94467.53;5046927;28;20486;-77
2024/02/08 08:42:34;;;;;;;15.20;10.70;;;;;;;22.27;23.96;94464.03;5046634;28;20511;-80
2024/02/08 08:44:59;;;;;;;14.85;10.13;;;;;;;23.03;23.05;94458.56;5047809;28;20530;-81
2024/02/08 08:47:27;;;;;;;12.80;9.63;;;;;;;23.83;21.99;94456.88;5045747;28;20024;-80
2024/02/08 08:49:54;;;;;;;11.65;8.07;;;;;;;24.40;21.31;94454.59;5046327;28;20509;-86
2024/02/08 08:52:26;;;;;;;13.18;7.32;;;;;;;25.08;20.26;94454.00;5047652;28;20023;-76
2024/02/08 08:55:01;;;;;;;13.10;7.37;;;;;;;25.69;19.76;94460.25;5046155;28;20099;-80
2024/02/08 08:57:27;;;;;;;10.45;6.57;;;;;;;26.44;19.17;94461.50;5046194;28;20067;-85
2024/02/08 08:59:52;;;;;;;10.00;7.18;;;;;;;27.08;18.77;94462.81;5045889;28;20025;-80
2024/02/08 09:02:19;;;;;;;11.90;7.53;;;;;;;27.87;17.83;94464.75;5046238;28;20040;-80
2024/02/08 09:04:46;;;;;;;11.38;7.30;;;;;;;28.46;17.26;94461.75;5045363;28;20491;-79
2024/02/08 09:07:13;;;;;;;12.52;7.10;;;;;;;29.08;16.63;94463.13;5047507;28;20056;-77
2024/02/08 09:12:36;;;;;;;11.80;7.95;;;;;;;30.07;15.55;94461.84;5047207;28;20043;-79
2024/02/08 09:15:19;;;;;;;13.02;7.78;;;;;;;30.67;14.98;94456.97;5047309;28;20048;-80
2024/02/08 09:17:51;;;;;;;12.43;7.20;;;;;;;31.14;14.45;94454.41;5044921;28;20029;-77
2024/02/08 09:20:20;;;;;;;13.20;7.57;;;;;;;31.75;14.02;94444.38;5045674;28;20198;-78
2024/02/08 09:22:49;;;;;;;12.13;6.88;;;;;;;32.09;13.66;94443.50;5046655;28;20033;-78
2024/02/08 09:25:17;;;;;;;10.20;7.25;;;;;;;32.40;13.26;94444.53;5045452;28;20872;-78
2024/02/08 09:27:47;;;;;;;11.88;8.43;;;;;;;32.93;13.15;94447.78;5046767;28;20036;-78
2024/02/08 09:30:30;;;;;;;13.02;8.27;;;;;;;33.37;12.42;94453.16;5044939;28;20032;-79
2024/02/08 09:32:58;;;;;;;11.05;7.72;;;;;;;33.98;12.20;94451.88;5045550;28;20565;-77
2024/02/08 09:35:30;;;;;;;9.82;7.45;;;;;;;34.25;11.83;94445.91;5046293;28;20029;-77
2024/02/08 09:37:55;;;;;;;12.55;8.32;;;;;;;34.92;11.18;94460.41;5045324;28;20024;-77
2024/02/08 09:43:16;;;;;;;11.77;8.13;;;;;;;35.46;11.08;94448.31;5045018;28;20523;-77
2024/02/08 09:45:42;;;;;;;12.70;8.25;;;;;;;35.51;10.60;94445.09;5045209;28;20430;-77
2024/02/08 09:48:15;;;;;;;14.73;9.07;;;;;;;35.32;10.82;94433.81;5044696;28;20531;-79
2024/02/08 09:50:50;;;;;;;12.98;7.47;;;;;;;35.51;11.02;94430.06;5045982;28;20059;-78
2024/02/08 09:53:27;;;;;;;11.40;7.18;;;;;;;35.73;10.94;94434.34;5044786;28;20028;-79
2024/02/08 09:56:15;;;;;;;15.85;6.68;;;;;;;36.29;10.31;94432.81;5043400;28;20075;-79
2024/02/08 09:58:46;;;;;;;13.90;6.32;;;;;;;36.88;10.02;94430.69;5044147;28;20044;-79
2024/02/08 10:01:35;;;;;;;10.87;5.60;;;;;;;37.18;9.99;94426.72;5045525;28;20017;-77
2024/02/08 10:04:04;;;;;;;10.85;5.43;;;;;;;37.49;9.46;94414.16;5044448;28;20338;-78
2024/02/08 10:06:56;;;;;;;13.48;6.00;;;;;;;37.88;9.53;94419.94;5045733;28;20489;-78
2024/02/08 10:09:36;;;;;;;;;;;;;;;38.61;9.17;94413.78;5045256;28;20021;-78
2024/02/08 10:12:11;;;;;;;10.43;5.00;;;;;;;38.52;8.83;94407.59;5045785;28;19920;-79
2024/02/08 10:14:41;;;;;;;8.27;4.80;;;;;;;38.58;8.87;94412.91;5044194;28;20570;-80
2024/02/08 10:17:52;;;;;;;8.30;5.32;;;;;;;38.98;8.90;94402.78;5046279;28;20029;-79
2024/02/08 10:23:33;;;;;;;12.63;7.28;;;;;;;39.90;8.07;94400.75;5042255;28;20132;-78
2024/02/08 10:28:22;;;;;;;9.15;5.43;;;;;;;39.90;8.09;94400.75;5043262;28;20182;-78
2024/02/08 10:30:59;;;;;;;12.88;6.28;;;;;;;39.89;8.22;94394.28;5042704;28;20120;-78
2024/02/08 10:33:25;;;;;;;8.15;4.47;;;;;;;39.97;7.84;94396.78;5043680;28;20021;-77
2024/02/08 10:35:53;;;;;;;8.93;4.70;;;;;;;40.14;7.94;94386.78;5043665;28;20143;-78
2024/02/08 10:38:47;;;;;;;9.68;4.43;;;;;;;40.24;7.91;94379.34;5045545;28;20025;-77
2024/02/08 10:41:17;;;;;;;10.52;4.55;;;;;;;40.28;7.83;94388.19;5044868;28;20459;-77
2024/02/08 10:43:52;;;;;;;10.52;5.22;;;;;;;40.58;7.62;94380.16;5043444;28;20499;-79
2024/02/08 10:46:17;;;;;;;9.05;4.43;;;;;;;40.94;7.51;94382.41;5044223;28;20477;-81
2024/02/08 10:48:43;;;;;;;7.47;4.60;;;;;;;41.34;7.36;94369.72;5043692;28;20112;-82
2024/02/08 10:51:11;;;;;;;9.63;4.70;;;;;;;41.51;7.20;94364.59;5043830;28;20057;-80
2024/02/08 10:53:48;;;;;;;8.05;4.60;;;;;;;42.07;6.89;94368.22;5044180;28;20390;-77
2024/02/08 10:56:14;;;;;;;7.65;4.63;;;;;;;42.14;6.77;94361.28;5043912;28;20029;-79
2024/02/08 10:58:55;;;;;;;7.70;4.50;;;;;;;42.28;6.67;94358.22;5043994;28;20043;-78
2024/02/08 11:01:33;;;;;;;14.05;6.30;;;;;;;42.27;6.83;94357.47;5043846;28;20029;-77
2024/02/08 11:04:07;;;;;;;10.00;5.88;;;;;;;42.79;6.43;94351.41;5046147;28;20025;-86
2024/02/08 11:06:43;;;;;;;8.73;4.70;;;;;;;43.06;6.31;94350.16;5044683;28;20496;-90
2024/02/08 11:09:14;;;;;;;9.18;4.45;;;;;;;43.47;5.77;94343.56;5044214;28;20028;-92
2024/02/08 11:12:14;;;;;;;11.02;4.65;;;;;;;43.72;6.03;94351.59;5030052;28;20037;-86
2024/02/08 11:14:45;;;;;;;13.32;6.53;;;;;;;44.34;5.84;94348.41;5042968;28;20485;-80
2024/02/08 11:17:21;;;;;;;14.60;5.97;;;;;;;44.70;5.57;94331.31;5044224;28;20104;-80
2024/02/08 11:19:59;;;;;;;12.38;6.18;;;;;;;45.05;4.94;94325.69;5027906;28;20025;-79
2024/02/08 11:22:35;;;;;;;9.15;6.40;;;;;;;44.99;5.02;94338.63;5026113;28;20028;-80
2024/02/08 11:25:20;;;;;;;9.50;4.10;;;;;;;45.18;5.16;94327.47;5042109;28;20021;-80
2024/02/08 11:27:47;;;;;;;9.27;4.65;;;;;;;45.67;4.61;94326.50;5040878;28;20025;-80
2024/02/08 11:30:20;;;;;;;8.05;4.68;;;;;;;46.08;4.73;94313.63;5042984;28;20077;-79
2024/02/08 11:33:02;;;;;;;13.60;6.35;;;;;;;46.46;4.86;94318.78;5027637;28;20141;-80
2024/02/08 11:35:32;;;;;;;12.55;6.35;;;;;;;47.03;4.53;94316.97;5043310;28;20087;-80
2024/02/08 11:38:16;;;;;;;10.55;6.10;;;;;;;47.76;4.08;94308.69;5044898;28;20037;-80
2024/02/08 11:40:45;;;;;;;10.48;4.68;;;;;;;47.90;3.67;94302.34;5027818;28;20086;-79
2024/02/08 11:43:23;;;;;;;11.57;4.70;;;;;;;47.76;3.83;94302.88;5030699;28;20407;-80
2024/02/08 11:45:56;;;;;;;9.38;6.00;;;;;;;48.71;3.44;94299.00;5046977;28;20555;-79
2024/02/08 11:48:28;;;;;;;11.07;4.72;;;;;;;48.83;3.72;94302.78;5046981;28;20092;-81
2024/02/08 11:51:02;;;;;;;8.93;4.15;;;;;;;48.69;3.90;94299.66;5046811;28;20041;-80
2024/02/08 11:53:32;;;;;;;12.00;4.05;;;;;;;48.73;3.51;94293.19;5030706;28;20036;-80
2024/02/08 11:56:08;;;;;;;10.10;3.67;;;;;;;48.05;3.92;94292.34;5047175;28;20395;-80
2024/02/08 11:58:40;;;;;;;5.25;3.47;;;;;;;47.89;3.82;94277.56;5048288;28;20515;-79
2024/02/08 12:01:05;;;;;;;;;;;;;;;47.22;3.82;94273.63;5047596;28;20021;-78
2024/02/08 12:03:31;;;;;;;5.93;3.28;;;;;;;46.08;4.52;94249.75;5030464;28;20315;-80
2024/02/08 12:06:01;;;;;;;8.18;4.10;;;;;;;41.69;6.23;94260.72;5029943;28;20112;-79
2024/02/08 12:08:28;;;;;;;11.18;3.55;;;;;;;38.84;7.42;94260.59;5046670;28;20431;-80
2024/02/08 12:10:53;;;;;;;7.45;3.83;;;;;;;37.05;8.30;94246.94;5029627;28;20060;-80
2024/02/08 12:13:25;;;;;;;7.25;3.38;;;;;;;35.97;8.92;94249.28;5046634;28;20496;-79
2024/02/08 12:15:55;;;;;;;9.93;2.97;;;;;;;35.20;9.71;94248.09;5048259;28;20027;-80
2024/02/08 12:18:26;;;;;;;8.38;3.60;;;;;;;33.67;10.21;94248.75;5030267;28;20029;-79
2024/02/08 12:20:57;;;;;;;5.93;3.03;;;;;;;32.80;10.72;94249.72;5046696;28;20028;-80
2024/02/08 12:23:32;;;;;;;5.38;2.78;;;;;;;31.88;11.35;94245.09;5047489;28;20032;-80
2024/02/08 12:26:01;;;;;;;5.68;2.28;;;;;;;31.05;11.79;94228.81;5047985;28;20483;-80
2024/02/08 12:28:30;;;;;;;13.40;5.78;;;;;;;30.53;12.41;94222.53;5046238;28;20036;-81
2024/02/08 12:30:59;;;;;;;10.45;4.05;;;;;;;29.83;12.75;94225.38;5045934;28;20162;-79
2024/02/08 12:33:26;;;;;;;7.00;2.40;;;;;;;29.18;12.71;94228.38;5046629;28;20083;-80
2024/02/08 12:35:52;;;;;;;5.53;2.60;;;;;;;28.64;13.28;94216.66;5045735;28;20491;-80
2024/02/08 12:38:17;;;;;;;5.22;2.88;;;;;;;28.01;13.72;94197.72;5046232;28;20040;-79
2024/02/08 12:40:46;;;;;;;5.95;2.83;;;;;;;27.60;13.98;94203.84;5045749;28;20440;-79
2024/02/08 12:43:13;;;;;;;6.63;2.80;;;;;;;26.99;14.58;94201.78;5046349;28;20078;-79
2024/02/08 12:45:41;;;;;;;5.38;2.90;;;;;;;26.52;14.82;94199.47;5029277;28;20485;-81
2024/02/08 12:48:07;;;;;;;9.20;2.70;;;;;;;26.13;15.28;94202.13;5046008;28;20034;-80
2024/02/08 12:50:37;;;;;;;4.65;2.40;;;;;;;25.78;15.24;94186.03;5046308;28;20049;-79
2024/02/08 12:53:07;;;;;;;6.10;2.88;;;;;;;25.51;15.50;94191.84;5046945;28;20045;-80
2024/02/08 12:55:33;;;;;;;4.28;2.13;;;;;;;25.29;15.92;94187.59;5046333;28;20112;-79
2024/02/08 12:58:02;;;;;;;11.48;5.35;;;;;;;25.33;16.07;94187.25;5045401;28;20112;-80
2024/02/08 13:00:33;;;;;;;12.00;5.32;;;;;;;24.97;16.32;94184.34;5045823;28;20120;-79
2024/02/08 13:03:05;;;;;;;5.87;2.43;;;;;;;24.74;16.60;94178.53;5029766;28;20111;-81
2024/02/08 13:05:36;;;;;;;7.00;2.55;;;;;;;24.76;16.54;94187.16;5045421;28;20114;-80
2024/02/08 13:08:08;;;;;;;5.18;2.30;;;;;;;24.66;16.51;94178.47;5047318;28;20404;-79
2024/02/08 13:10:34;;;;;;;6.57;3.10;;;;;;;24.46;16.52;94176.38;5045198;28;20033;-80
2024/02/08 13:13:00;;;;;;;7.13;3.35;;;;;;;24.43;16.91;94181.06;5045450;28;20027;-81
2024/02/08 13:15:31;;;;;;;7.57;2.83;;;;;;;24.26;16.85;94178.59;5045347;28;20032;-80
2024/02/08 13:17:59;;;;;;;7.72;3.60;;;;;;;24.13;17.33;94175.06;5046658;28;20127;-79
2024/02/08 13:20:25;;;;;;;7.95;2.88;;;;;;;24.15;17.13;94180.91;5045712;28;20040;-80
2024/02/08 13:22:52;;;;;;;7.50;4.57;;;;;;;24.07;17.18;94183.63;5045134;28;20021;-80
2024/02/08 13:25:18;;;;;;;8.98;4.25;;;;;;;23.94;17.50;94180.84;5047709;28;20047;-79
2024/02/08 13:27:50;;;;;;;7.25;4.15;;;;;;;23.83;17.46;94171.38;5044747;28;20064;-78
2024/02/08 13:30:16;;;;;;;4.40;2.92;;;;;;;23.65;17.27;94169.47;5046812;28;20431;-81
2024/02/08 13:32:51;;;;;;;6.75;3.47;;;;;;;23.50;17.47;94153.16;5044976;28;20037;-81
2024/02/08 13:35:20;;;;;;;8.95;3.47;;;;;;;23.46;17.78;94172.38;5045067;28;20495;-79
2024/02/08 13:37:53;;;;;;;5.65;2.15;;;;;;;23.28;17.71;94171.19;5044898;28;20035;-80
2024/02/08 13:40:18;;;;;;;;;;;;;;;23.37;17.50;94175.59;5045380;28;20128;-81
2024/02/08 13:42:45;;;;;;;4.22;2.22;;;;;;;23.31;17.45;94167.28;5046381;28;20430;-80
2024/02/08 13:45:12;;;;;;;6.47;2.33;;;;;;;23.13;17.60;94165.34;5044524;28;20049;-80
2024/02/08 13:47:37;;;;;;;5.43;2.40;;;;;;;23.02;17.60;94171.16;5046270;28;20496;-80
2024/02/08 13:50:10;;;;;;;7.88;3.08;;;;;;;22.91;17.86;94172.13;5044511;28;20102;-80